Laclede, Idaho
Current Conditions -  °F | °C
As of 10:15 AM on Friday 19 Dec 2014 (Local Time) from KSZT Reporting Station
Moderate Rain Moderate Rain  
Wind Chill: 36°   Ceiling: 1900
Heat Index: 36°   Visibility: 2mi
Dew Point: 36°   Wind: 0mph
Humidity: 100%   Direction: NA
Pressure: 29.9"   Gusts: NA
Location:  48.17°N, 116.75°W
Report Text: KSZT 191815Z AUTO 00000KT 2SM RA OVC019 02/02 A2990 RMK AO2
Loading
Personal Weather Stations






























Interactive Weather Map New forecast layout! Learn more

10-Day Weather Forecast

Advertisements
Track Severe Weather on mobile